createdAt,value
2022-11-06T00:02:21.199Z,37.10
2022-11-06T00:04:47.919Z,28.97
2022-11-06T00:07:14.589Z,41.07
2022-11-06T00:09:41.017Z,40.17
2022-11-06T00:12:07.475Z,38.33
2022-11-06T00:14:34.920Z,35.63
2022-11-06T00:17:01.395Z,38.27
2022-11-06T00:19:27.934Z,45.27
2022-11-06T00:21:54.624Z,36.80
2022-11-06T00:24:21.079Z,40.27
2022-11-06T00:26:53.052Z,33.67
2022-11-06T00:29:20.840Z,41.93
2022-11-06T00:31:49.535Z,40.20
2022-11-06T00:34:16.110Z,53.90
2022-11-06T00:36:42.664Z,47.40
2022-11-06T00:39:09.733Z,44.47
2022-11-06T00:41:36.209Z,41.67
2022-11-06T00:44:03.212Z,44.00
2022-11-06T00:46:29.728Z,44.63
2022-11-06T00:48:56.438Z,47.23
2022-11-06T00:51:29.035Z,48.33
2022-11-06T00:54:03.511Z,48.47
2022-11-06T00:56:30.807Z,57.27
2022-11-06T00:58:59.955Z,55.60
2022-11-06T01:01:45.509Z,50.57
2022-11-06T01:04:17.956Z,48.67
2022-11-06T01:06:46.976Z,46.53
2022-11-06T01:09:16.176Z,50.40
2022-11-06T01:14:31.954Z,57.07
2022-11-06T01:16:58.387Z,53.57
2022-11-06T01:19:24.829Z,58.43
2022-11-06T01:21:53.013Z,58.83
2022-11-06T01:24:22.784Z,54.77
2022-11-06T01:27:19.970Z,51.93
2022-11-06T01:29:36.649Z,44.47
2022-11-06T01:32:03.230Z,41.63
2022-11-06T01:34:29.707Z,50.80
2022-11-06T01:36:56.263Z,42.47
2022-11-06T01:39:22.942Z,40.97
2022-11-06T01:41:51.465Z,67.57
2022-11-06T01:44:35.993Z,68.07
2022-11-06T01:47:04.315Z,54.07
2022-11-06T01:49:36.659Z,52.30
2022-11-06T01:52:10.240Z,36.73
2022-11-06T01:54:38.651Z,58.17
2022-11-06T01:57:05.528Z,46.63
2022-11-06T01:59:34.312Z,48.83
2022-11-06T02:02:00.907Z,50.00
2022-11-06T02:04:40.640Z,46.73
2022-11-06T02:07:07.371Z,39.93
2022-11-06T02:09:34.396Z,35.60
2022-11-06T02:12:05.774Z,49.47
2022-11-06T02:14:55.464Z,40.70
2022-11-06T02:17:42.064Z,51.87
2022-11-06T02:20:26.486Z,34.87
2022-11-06T02:23:10.546Z,51.20
2022-11-06T02:26:04.137Z,66.17
2022-11-06T02:28:34.826Z,49.60
2022-11-06T02:31:03.604Z,78.50
2022-11-06T02:33:43.895Z,101.13
2022-11-06T02:36:15.642Z,106.23
2022-11-06T02:38:46.531Z,128.57
2022-11-06T02:41:18.241Z,184.53
2022-11-06T02:43:47.391Z,138.60
2022-11-06T02:46:20.503Z,208.70
2022-11-06T02:49:07.006Z,101.83
2022-11-06T02:51:36.534Z,143.00
2022-11-06T02:54:03.572Z,256.37
2022-11-06T02:56:34.251Z,186.80
2022-11-06T02:59:04.786Z,310.43
2022-11-06T03:01:34.860Z,302.87
2022-11-06T03:04:04.501Z,122.20
2022-11-06T03:06:36.232Z,177.20
2022-11-06T03:09:12.558Z,118.80
2022-11-06T03:11:39.228Z,90.20
2022-11-06T03:14:14.475Z,183.30
2022-11-06T03:17:17.948Z,55.27
2022-11-06T03:19:55.150Z,98.10
2022-11-06T03:22:30.458Z,110.77
2022-11-06T03:25:05.746Z,250.93
2022-11-06T03:27:35.094Z,135.67
2022-11-06T03:30:04.318Z,226.53
2022-11-06T03:32:47.154Z,254.60
2022-11-06T03:35:26.852Z,146.87
2022-11-06T03:37:58.002Z,39.60
2022-11-06T03:40:27.620Z,53.17
2022-11-06T03:42:57.850Z,206.17
2022-11-06T03:45:24.637Z,181.83
2022-11-06T03:48:02.010Z,191.10
2022-11-06T03:50:37.630Z,96.43
2022-11-06T03:53:09.933Z,220.37
2022-11-06T03:55:45.354Z,137.53
2022-11-06T03:58:15.532Z,182.50
2022-11-06T04:00:43.078Z,196.60
2022-11-06T04:03:25.298Z,172.67
2022-11-06T04:05:55.307Z,198.70
2022-11-06T04:08:42.024Z,153.00
2022-11-06T04:11:29.198Z,60.13
2022-11-06T04:14:01.960Z,157.57
2022-11-06T04:16:37.859Z,98.30
2022-11-06T04:19:10.359Z,236.03
2022-11-06T04:21:57.263Z,194.40
2022-11-06T04:24:56.522Z,246.80
2022-11-06T04:27:47.313Z,253.70
2022-11-06T04:30:16.129Z,298.50
2022-11-06T04:33:04.216Z,278.13
2022-11-06T04:35:38.734Z,292.00
2022-11-06T04:38:27.858Z,195.40
2022-11-06T04:41:08.138Z,107.77
2022-11-06T04:43:40.681Z,107.63
2022-11-06T04:46:08.534Z,72.07
2022-11-06T04:48:35.243Z,58.07
2022-11-06T04:51:03.677Z,133.50
2022-11-06T04:53:31.124Z,70.10
2022-11-06T04:56:02.382Z,50.03
2022-11-06T04:58:29.345Z,41.80
2022-11-06T05:00:55.857Z,115.47
2022-11-06T05:03:22.335Z,43.13
2022-11-06T05:05:49.079Z,119.30
2022-11-06T05:08:17.304Z,99.23
2022-11-06T05:10:43.799Z,110.30
2022-11-06T05:13:10.570Z,122.37
2022-11-06T05:15:36.995Z,110.20
2022-11-06T05:18:03.783Z,98.60
2022-11-06T05:20:30.731Z,71.23
2022-11-06T05:23:03.331Z,131.97
2022-11-06T05:25:32.471Z,120.73
2022-11-06T05:27:59.432Z,58.90
2022-11-06T05:30:26.086Z,125.80
2022-11-06T05:32:52.661Z,153.90
2022-11-06T05:35:20.026Z,40.57
2022-11-06T05:37:46.904Z,95.13
2022-11-06T05:40:14.049Z,149.93
2022-11-06T05:42:41.378Z,110.70
2022-11-06T05:45:08.129Z,131.80
2022-11-06T05:47:34.782Z,129.07
2022-11-06T05:50:01.244Z,171.83
2022-11-06T05:52:27.913Z,215.77
2022-11-06T05:54:55.014Z,185.93
2022-11-06T05:57:21.441Z,231.90
2022-11-06T05:59:47.975Z,185.90
2022-11-06T06:02:14.680Z,59.50
2022-11-06T06:04:41.281Z,230.03
2022-11-06T06:07:07.807Z,295.83
2022-11-06T06:09:34.400Z,132.20
2022-11-06T06:12:01.226Z,73.17
2022-11-06T06:14:28.176Z,263.10
2022-11-06T06:16:54.860Z,144.53
2022-11-06T06:19:21.722Z,114.53
2022-11-06T06:21:49.200Z,46.60
2022-11-06T06:24:15.830Z,153.40
2022-11-06T06:26:42.453Z,76.20
2022-11-06T06:29:08.951Z,181.83
2022-11-06T06:31:35.640Z,82.37
2022-11-06T06:34:02.202Z,108.53
2022-11-06T06:36:29.277Z,43.23
2022-11-06T06:38:56.112Z,169.13
2022-11-06T06:41:22.561Z,98.97
2022-11-06T06:43:49.504Z,101.10
2022-11-06T06:46:16.155Z,91.20
2022-11-06T06:48:42.769Z,122.47
2022-11-06T06:51:09.226Z,81.33
2022-11-06T06:53:36.220Z,231.47
2022-11-06T06:56:03.126Z,168.43
2022-11-06T06:58:29.914Z,189.40
2022-11-06T07:01:00.311Z,187.33
2022-11-06T07:03:26.823Z,118.20
2022-11-06T07:05:53.344Z,83.97
2022-11-06T07:08:19.865Z,136.33
2022-11-06T07:10:46.289Z,91.70
2022-11-06T07:13:13.147Z,180.33
2022-11-06T07:15:39.931Z,113.63
2022-11-06T07:18:07.254Z,77.20
2022-11-06T07:20:33.962Z,204.17
2022-11-06T07:23:05.360Z,103.80
2022-11-06T07:25:31.880Z,49.67
2022-11-06T07:28:02.944Z,194.63
2022-11-06T07:30:30.410Z,277.50
2022-11-06T07:32:56.967Z,40.80
2022-11-06T07:35:23.440Z,113.50
2022-11-06T07:37:49.855Z,101.13
2022-11-06T07:40:16.319Z,87.53
2022-11-06T07:42:43.816Z,110.60
2022-11-06T07:45:10.563Z,44.33
2022-11-06T07:47:37.005Z,54.03
2022-11-06T07:50:04.050Z,151.93
2022-11-06T07:52:30.736Z,110.40
2022-11-06T07:54:57.272Z,154.03
2022-11-06T07:57:23.903Z,41.90
2022-11-06T07:59:50.546Z,112.73
2022-11-06T08:02:17.624Z,68.97
2022-11-06T08:04:44.226Z,120.33
2022-11-06T08:07:10.767Z,186.13
2022-11-06T08:09:37.426Z,76.77
2022-11-06T08:12:04.093Z,134.37
2022-11-06T08:14:30.683Z,53.93
2022-11-06T08:16:57.552Z,44.07
2022-11-06T08:19:24.215Z,52.83
2022-11-06T08:21:50.723Z,132.03
2022-11-06T08:24:21.752Z,37.97
2022-11-06T08:26:48.541Z,192.47
2022-11-06T08:29:15.135Z,126.47
2022-11-06T08:31:41.705Z,187.43
2022-11-06T08:34:09.187Z,126.40
2022-11-06T08:36:44.514Z,67.97
2022-11-06T08:39:13.402Z,223.87
2022-11-06T08:41:40.394Z,95.67
2022-11-06T08:44:07.095Z,84.27
2022-11-06T08:46:33.686Z,167.20
2022-11-06T08:49:00.172Z,76.07
2022-11-06T08:51:26.954Z,64.80
2022-11-06T08:53:53.677Z,90.70
2022-11-06T08:56:20.352Z,140.93
2022-11-06T08:58:49.120Z,51.13
2022-11-06T09:01:19.686Z,41.80
2022-11-06T09:03:46.313Z,30.97
2022-11-06T09:06:12.878Z,53.93
2022-11-06T09:08:39.401Z,61.80
2022-11-06T09:11:07.791Z,58.40
2022-11-06T09:13:34.502Z,43.47
2022-11-06T09:16:01.326Z,32.97
2022-11-06T09:18:28.057Z,115.80
2022-11-06T09:20:56.371Z,40.43
2022-11-06T09:23:23.032Z,42.00
2022-11-06T09:25:49.815Z,43.80
2022-11-06T09:28:16.969Z,34.23
2022-11-06T09:30:43.532Z,27.70
2022-11-06T09:33:13.560Z,34.70
2022-11-06T09:35:40.883Z,29.00
2022-11-06T09:38:10.137Z,28.40
2022-11-06T09:40:40.984Z,30.67
2022-11-06T09:46:40.489Z,28.80
2022-11-06T09:49:26.816Z,25.63
2022-11-06T09:52:19.057Z,61.90
2022-11-06T09:54:58.186Z,57.37
2022-11-06T09:57:51.530Z,33.93
2022-11-06T10:00:19.100Z,29.47
2022-11-06T10:02:49.542Z,46.50
2022-11-06T10:05:31.198Z,46.93
2022-11-06T10:07:59.847Z,30.30
2022-11-06T10:11:04.444Z,34.33
2022-11-06T10:14:12.101Z,34.87
2022-11-06T10:16:53.669Z,30.93
2022-11-06T10:19:39.921Z,35.50
2022-11-06T10:22:24.301Z,31.93
2022-11-06T10:25:18.200Z,32.07
2022-11-06T10:28:01.168Z,31.67
2022-11-06T10:30:35.500Z,31.07
2022-11-06T10:33:26.399Z,29.53
2022-11-06T10:36:02.889Z,29.33
2022-11-06T10:38:34.103Z,33.47
2022-11-06T10:41:01.436Z,32.10
2022-11-06T10:43:35.475Z,29.57
2022-11-06T10:46:10.482Z,34.10
2022-11-06T10:48:41.542Z,34.13
2022-11-06T10:51:33.714Z,28.97
2022-11-06T10:54:06.423Z,33.43
2022-11-06T10:56:52.309Z,30.37
2022-11-06T10:59:19.051Z,34.37
2022-11-06T11:01:46.000Z,32.63
2022-11-06T11:04:12.683Z,27.53
2022-11-06T11:06:40.824Z,31.80
2022-11-06T11:09:26.825Z,32.10
2022-11-06T11:11:53.420Z,39.43
2022-11-06T11:14:25.415Z,27.60
2022-11-06T11:16:52.405Z,36.40
2022-11-06T11:19:38.955Z,31.10
2022-11-06T11:22:18.399Z,28.07
2022-11-06T11:25:05.636Z,27.73
2022-11-06T11:27:36.280Z,32.03
2022-11-06T11:30:04.447Z,34.80
2022-11-06T11:32:31.501Z,34.50
2022-11-06T11:35:11.467Z,35.33
2022-11-06T11:37:38.170Z,36.83
2022-11-06T11:40:23.534Z,34.13
2022-11-06T11:42:52.962Z,35.93
2022-11-06T11:45:21.047Z,43.33
2022-11-06T11:47:49.861Z,33.80
2022-11-06T11:50:16.492Z,36.07
2022-11-06T11:52:47.361Z,35.97
2022-11-06T11:55:18.053Z,33.97
2022-11-06T11:57:46.106Z,31.77
2022-11-06T12:00:21.522Z,35.43
2022-11-06T12:02:57.926Z,33.27
2022-11-06T12:05:31.908Z,30.40
2022-11-06T12:07:59.135Z,34.53
2022-11-06T12:10:40.010Z,29.67
2022-11-06T12:13:15.053Z,35.90
2022-11-06T12:15:50.021Z,30.03
2022-11-06T12:18:19.676Z,30.80
2022-11-06T12:20:59.816Z,29.50
2022-11-06T12:23:47.748Z,32.63
2022-11-06T12:26:34.265Z,29.73
2022-11-06T12:29:24.019Z,38.27
2022-11-06T12:32:11.899Z,35.93
2022-11-06T12:34:42.692Z,33.10
2022-11-06T12:37:39.815Z,30.40
2022-11-06T12:40:24.829Z,31.77
2022-11-06T12:43:18.799Z,25.47
2022-11-06T12:46:08.006Z,29.80
2022-11-06T12:49:16.153Z,28.17
2022-11-06T12:51:59.380Z,25.13
2022-11-06T12:54:50.301Z,27.23
2022-11-06T12:57:38.752Z,27.60
2022-11-06T13:00:18.207Z,29.50
2022-11-06T13:03:15.358Z,27.20
2022-11-06T13:06:13.026Z,35.80
2022-11-06T13:09:14.606Z,24.63
2022-11-06T13:11:53.372Z,23.40
2022-11-06T13:14:30.198Z,27.10
2022-11-06T13:17:12.294Z,26.37
2022-11-06T13:20:07.457Z,23.13
2022-11-06T13:22:48.654Z,23.70
2022-11-06T13:25:22.606Z,23.60
2022-11-06T13:27:57.560Z,20.97
2022-11-06T13:30:24.683Z,21.97
2022-11-06T13:33:08.566Z,24.60
2022-11-06T13:35:39.008Z,19.67
2022-11-06T13:38:14.579Z,27.90
2022-11-06T13:40:44.124Z,25.27
2022-11-06T13:43:10.562Z,22.67
2022-11-06T13:45:45.527Z,22.73
2022-11-06T13:48:18.485Z,18.23
2022-11-06T13:50:50.078Z,22.23
2022-11-06T13:53:30.760Z,23.70
2022-11-06T13:56:10.520Z,22.17
2022-11-06T13:58:54.692Z,19.27
2022-11-06T14:02:02.095Z,22.90
2022-11-06T14:05:09.147Z,22.23
2022-11-06T14:07:36.674Z,25.67
2022-11-06T14:10:03.634Z,26.40
2022-11-06T14:12:30.181Z,25.07
2022-11-06T14:15:17.395Z,29.00
2022-11-06T14:17:55.153Z,28.23
2022-11-06T14:20:33.374Z,24.57
2022-11-06T14:23:30.840Z,24.43
2022-11-06T14:26:01.233Z,25.23
2022-11-06T14:28:32.752Z,21.40
2022-11-06T14:31:18.303Z,21.53
2022-11-06T14:33:51.379Z,25.33
2022-11-06T14:36:23.815Z,27.00
2022-11-06T14:38:50.824Z,23.37
2022-11-06T14:41:35.711Z,23.57
2022-11-06T14:44:07.067Z,22.70
2022-11-06T14:46:33.769Z,35.27
2022-11-06T14:49:29.178Z,40.20
2022-11-06T14:52:15.864Z,34.13
2022-11-06T14:54:51.519Z,27.17
2022-11-06T14:57:34.583Z,43.37
2022-11-06T15:00:01.628Z,39.93
2022-11-06T15:02:30.183Z,35.43
2022-11-06T15:05:00.980Z,42.33
2022-11-06T15:08:03.778Z,35.07
2022-11-06T15:10:43.899Z,48.03
2022-11-06T15:13:17.418Z,33.77
2022-11-06T15:15:57.184Z,26.97
2022-11-06T15:18:24.689Z,29.17
2022-11-06T15:20:55.925Z,24.77
2022-11-06T15:23:33.249Z,25.93
2022-11-06T15:26:05.624Z,28.13
2022-11-06T15:28:38.611Z,24.77
2022-11-06T15:31:07.502Z,38.23
2022-11-06T15:34:00.620Z,33.50
2022-11-06T15:36:37.203Z,23.83
2022-11-06T15:39:22.129Z,24.73
2022-11-06T15:41:49.176Z,27.10
2022-11-06T15:44:19.541Z,26.13
2022-11-06T15:46:56.689Z,27.57
2022-11-06T15:49:23.240Z,23.90
2022-11-06T15:51:52.697Z,28.67
2022-11-06T15:54:40.033Z,28.07
2022-11-06T15:57:26.152Z,30.57
2022-11-06T16:00:10.640Z,31.60
2022-11-06T16:02:59.811Z,24.13
2022-11-06T16:05:29.307Z,25.53
2022-11-06T16:07:56.872Z,25.47
2022-11-06T16:10:23.764Z,22.50
2022-11-06T16:12:51.099Z,23.23
2022-11-06T16:15:45.249Z,23.40
2022-11-06T16:18:16.208Z,29.00
2022-11-06T16:20:45.015Z,23.40
2022-11-06T16:23:13.931Z,24.87
2022-11-06T16:25:40.665Z,25.43
2022-11-06T16:28:19.217Z,26.23
2022-11-06T16:30:48.636Z,24.87
2022-11-06T16:33:24.199Z,29.53
2022-11-06T16:35:55.281Z,34.83
2022-11-06T16:38:40.984Z,32.67
2022-11-06T16:41:09.431Z,35.90
2022-11-06T16:43:35.881Z,33.80
2022-11-06T16:46:08.038Z,30.57
2022-11-06T16:48:42.496Z,32.83
2022-11-06T16:51:16.221Z,30.60
2022-11-06T16:53:57.820Z,36.07
2022-11-06T16:56:32.484Z,35.37
2022-11-06T16:59:08.026Z,35.37
2022-11-06T17:01:43.657Z,33.03
2022-11-06T17:04:24.390Z,39.70
2022-11-06T17:06:51.957Z,32.60
2022-11-06T17:09:31.120Z,32.97
2022-11-06T17:11:58.931Z,31.63
2022-11-06T17:14:25.851Z,36.87
2022-11-06T17:16:56.171Z,52.00
2022-11-06T17:19:22.610Z,72.03
2022-11-06T17:21:49.617Z,68.93
2022-11-06T17:27:03.839Z,70.27
2022-11-06T17:29:30.394Z,70.03
2022-11-06T17:31:56.814Z,73.07
2022-11-06T17:34:23.465Z,69.87
2022-11-06T17:36:50.053Z,68.07
2022-11-06T17:39:16.510Z,61.97
2022-11-06T17:41:43.233Z,53.17
2022-11-06T17:44:12.261Z,60.57
2022-11-06T17:46:41.329Z,51.20
2022-11-06T17:49:11.610Z,52.17
2022-11-06T17:51:50.032Z,44.73
2022-11-06T17:54:17.633Z,49.00
2022-11-06T17:56:44.858Z,38.20
2022-11-06T17:59:12.240Z,40.37
2022-11-06T18:01:38.873Z,38.70
2022-11-06T18:04:07.050Z,43.87
2022-11-06T18:06:33.902Z,37.27
2022-11-06T18:09:04.185Z,42.43
2022-11-06T18:11:30.877Z,53.07
2022-11-06T18:13:57.479Z,52.37
2022-11-06T18:16:27.554Z,59.13
2022-11-06T18:18:54.987Z,49.97
2022-11-06T18:21:21.770Z,46.70
2022-11-06T18:23:48.337Z,44.30
2022-11-06T18:26:14.948Z,37.20
2022-11-06T18:28:41.447Z,42.10
2022-11-06T18:31:07.956Z,41.13
2022-11-06T18:33:34.679Z,43.27
2022-11-06T18:36:01.787Z,39.50
2022-11-06T18:38:28.999Z,41.23
2022-11-06T18:40:55.735Z,40.90
2022-11-06T18:43:22.632Z,40.87
2022-11-06T18:45:49.127Z,43.27
2022-11-06T18:48:20.724Z,41.67
2022-11-06T18:50:47.994Z,36.47
2022-11-06T18:53:15.276Z,35.63
2022-11-06T18:55:45.900Z,46.63
2022-11-06T18:58:12.859Z,39.67
2022-11-06T19:00:39.599Z,48.07
2022-11-06T19:03:06.194Z,41.23
2022-11-06T19:05:34.317Z,48.47
2022-11-06T19:08:02.242Z,41.73
2022-11-06T19:10:31.159Z,44.00
2022-11-06T19:12:59.547Z,48.27
2022-11-06T19:15:26.537Z,38.43
2022-11-06T19:17:54.623Z,45.17
2022-11-06T19:20:21.625Z,42.77
2022-11-06T19:22:51.898Z,43.47
2022-11-06T19:25:19.248Z,46.30
2022-11-06T19:27:46.481Z,49.20
2022-11-06T19:30:14.067Z,46.33
2022-11-06T19:32:40.832Z,50.27
2022-11-06T19:35:07.751Z,47.30
2022-11-06T19:37:34.456Z,48.50
2022-11-06T19:40:06.227Z,39.77
2022-11-06T19:42:33.173Z,42.10
2022-11-06T19:45:00.216Z,40.83
2022-11-06T19:47:28.634Z,45.77
2022-11-06T19:49:55.048Z,52.73
2022-11-06T19:52:41.423Z,41.80
2022-11-06T19:55:25.583Z,35.63
2022-11-06T19:57:53.839Z,36.53
2022-11-06T20:00:20.406Z,37.40
2022-11-06T20:02:50.753Z,38.27
2022-11-06T20:05:17.501Z,37.60
2022-11-06T20:07:43.938Z,33.23
2022-11-06T20:10:10.491Z,38.80
2022-11-06T20:12:37.105Z,89.67
2022-11-06T20:15:04.239Z,47.17
2022-11-06T20:17:30.743Z,45.63
2022-11-06T20:19:57.248Z,45.97
2022-11-06T20:22:25.039Z,39.83
2022-11-06T20:24:51.508Z,35.27
2022-11-06T20:27:17.946Z,44.40
2022-11-06T20:29:44.925Z,39.37
2022-11-06T20:32:13.569Z,38.27
2022-11-06T20:34:42.630Z,37.77
2022-11-06T20:37:09.071Z,35.20
2022-11-06T20:39:35.692Z,35.10
2022-11-06T20:42:02.144Z,39.00
2022-11-06T20:44:29.248Z,37.87
2022-11-06T20:46:55.688Z,35.00
2022-11-06T20:49:22.104Z,35.13
2022-11-06T20:52:12.577Z,46.20
2022-11-06T20:54:35.354Z,46.53
2022-11-06T20:57:02.009Z,37.53
2022-11-06T20:59:29.124Z,39.03
2022-11-06T21:01:55.709Z,48.53
2022-11-06T21:04:22.619Z,42.20
2022-11-06T21:06:49.183Z,37.80
2022-11-06T21:09:16.688Z,39.40
2022-11-06T21:11:43.228Z,47.07
2022-11-06T21:14:09.634Z,43.67
2022-11-06T21:16:37.179Z,50.67
2022-11-06T21:19:04.943Z,40.63
2022-11-06T21:21:33.202Z,46.23
2022-11-06T21:24:01.138Z,49.50
2022-11-06T21:26:29.929Z,45.33
2022-11-06T21:28:56.605Z,50.80
2022-11-06T21:31:28.085Z,44.57
2022-11-06T21:33:56.523Z,48.57
2022-11-06T21:36:27.931Z,43.73
2022-11-06T21:38:54.935Z,49.63
2022-11-06T21:41:24.161Z,49.60
2022-11-06T21:43:50.617Z,39.00
2022-11-06T21:46:18.250Z,45.33
2022-11-06T21:48:46.789Z,43.27
2022-11-06T21:51:16.036Z,49.27
2022-11-06T21:54:01.277Z,49.10
2022-11-06T21:56:27.903Z,51.33
2022-11-06T21:58:57.338Z,44.47
2022-11-06T22:01:24.357Z,56.70
2022-11-06T22:03:51.377Z,51.53
2022-11-06T22:06:20.887Z,53.10
2022-11-06T22:08:48.421Z,47.57
2022-11-06T22:11:22.264Z,50.63
2022-11-06T22:13:50.234Z,57.80
2022-11-06T22:16:20.699Z,52.50
2022-11-06T22:18:47.297Z,54.40
2022-11-06T22:21:16.740Z,51.00
2022-11-06T22:23:43.356Z,51.43
2022-11-06T22:26:18.136Z,50.97
2022-11-06T22:28:44.759Z,54.43
2022-11-06T22:31:11.534Z,51.23
2022-11-06T22:33:38.592Z,53.63
2022-11-06T22:36:07.774Z,50.90
2022-11-06T22:38:34.646Z,47.07
2022-11-06T22:41:02.215Z,50.93
2022-11-06T22:43:30.466Z,54.77
2022-11-06T22:46:06.367Z,56.10
2022-11-06T22:48:33.200Z,52.23
2022-11-06T22:51:04.449Z,51.40
2022-11-06T22:53:31.309Z,50.27
2022-11-06T22:55:59.150Z,59.80
2022-11-06T22:58:25.995Z,54.83
2022-11-06T23:00:53.338Z,60.37
2022-11-06T23:03:20.386Z,56.73
2022-11-06T23:05:47.403Z,54.67
2022-11-06T23:08:14.048Z,64.17
2022-11-06T23:10:40.863Z,65.03
2022-11-06T23:13:07.272Z,69.73
2022-11-06T23:15:33.770Z,59.27
2022-11-06T23:18:01.020Z,61.43
2022-11-06T23:20:29.658Z,58.73
2022-11-06T23:22:56.493Z,60.80
2022-11-06T23:25:22.960Z,61.20
2022-11-06T23:27:50.088Z,62.03
2022-11-06T23:30:16.684Z,68.90
2022-11-06T23:32:43.234Z,63.50
2022-11-06T23:35:13.826Z,63.13
2022-11-06T23:37:42.146Z,64.40
2022-11-06T23:40:09.964Z,69.67
2022-11-06T23:42:36.414Z,71.17
2022-11-06T23:45:21.865Z,62.93
2022-11-06T23:47:51.718Z,64.27
2022-11-06T23:50:18.278Z,65.20
2022-11-06T23:52:45.160Z,63.97
2022-11-06T23:55:11.960Z,61.07
2022-11-06T23:57:38.464Z,65.93
